createdAt,value
2023-05-01T00:01:34.596Z,11.15
2023-05-01T00:04:02.609Z,11.13
2023-05-01T00:06:30.519Z,11.08
2023-05-01T00:08:57.597Z,11.05
2023-05-01T00:11:25.215Z,11.06
2023-05-01T00:13:52.502Z,11.07
2023-05-01T00:16:19.872Z,11.09
2023-05-01T00:18:47.308Z,11.07
2023-05-01T00:21:14.535Z,11.06
2023-05-01T00:23:41.617Z,11.05
2023-05-01T00:26:08.843Z,11.04
2023-05-01T00:28:36.498Z,10.98
2023-05-01T00:31:03.606Z,10.94
2023-05-01T00:33:30.550Z,10.90
2023-05-01T00:35:57.656Z,10.82
2023-05-01T00:38:25.386Z,10.80
2023-05-01T00:40:52.386Z,10.76
2023-05-01T00:43:19.355Z,10.75
2023-05-01T00:45:46.829Z,10.75
2023-05-01T00:48:15.096Z,10.76
2023-05-01T00:50:43.185Z,10.75
2023-05-01T00:53:11.162Z,10.74
2023-05-01T00:55:42.239Z,10.68
2023-05-01T00:58:10.388Z,10.61
2023-05-01T01:00:38.000Z,10.56
2023-05-01T01:03:05.192Z,10.53
2023-05-01T01:05:39.556Z,10.51
2023-05-01T01:08:12.732Z,10.48
2023-05-01T01:10:57.408Z,10.43
2023-05-01T01:14:09.756Z,10.34
2023-05-01T01:17:13.977Z,10.23
2023-05-01T01:19:59.181Z,10.14
2023-05-01T01:22:28.289Z,10.10
2023-05-01T01:25:20.289Z,10.10
2023-05-01T01:28:23.818Z,10.07
2023-05-01T01:31:05.442Z,10.06
2023-05-01T01:33:55.146Z,10.07
2023-05-01T01:36:32.330Z,10.06
2023-05-01T01:39:25.132Z,10.02
2023-05-01T01:41:54.027Z,9.95
2023-05-01T01:44:49.508Z,9.91
2023-05-01T01:47:18.072Z,9.86
2023-05-01T01:49:50.214Z,9.79
2023-05-01T01:52:19.174Z,9.72
2023-05-01T01:54:54.838Z,9.69
2023-05-01T01:57:24.234Z,9.63
2023-05-01T01:59:52.127Z,9.47
2023-05-01T02:02:21.566Z,9.44
2023-05-01T02:04:50.698Z,9.36
2023-05-01T02:07:19.845Z,9.37
2023-05-01T02:09:50.642Z,9.30
2023-05-01T02:12:20.112Z,9.29
2023-05-01T02:14:51.280Z,9.22
2023-05-01T02:17:21.092Z,9.13
2023-05-01T02:19:49.188Z,9.12
2023-05-01T02:22:18.542Z,9.12
2023-05-01T02:24:47.511Z,9.14
2023-05-01T02:27:20.192Z,9.15
2023-05-01T02:29:47.507Z,9.16
2023-05-01T02:32:15.985Z,9.17
2023-05-01T02:34:43.588Z,9.16
2023-05-01T02:37:12.725Z,8.91
2023-05-01T02:39:42.361Z,9.08
2023-05-01T02:42:12.230Z,8.83
2023-05-01T02:44:43.257Z,8.88
2023-05-01T02:47:16.169Z,8.89
2023-05-01T02:49:44.204Z,8.98
2023-05-01T02:52:13.120Z,8.89
2023-05-01T02:54:41.010Z,8.77
2023-05-01T02:57:08.004Z,8.73
2023-05-01T02:59:35.156Z,8.76
2023-05-01T03:02:02.360Z,8.78
2023-05-01T03:04:29.379Z,8.72
2023-05-01T03:06:57.232Z,8.66
2023-05-01T03:09:24.260Z,8.66
2023-05-01T03:11:51.234Z,8.54
2023-05-01T03:14:18.249Z,8.46
2023-05-01T03:16:45.242Z,8.76
2023-05-01T03:19:12.376Z,8.54
2023-05-01T03:21:39.382Z,8.51
2023-05-01T03:24:06.801Z,8.70
2023-05-01T03:26:34.286Z,8.64
2023-05-01T03:29:01.254Z,8.44
2023-05-01T03:31:28.371Z,8.35
2023-05-01T03:33:57.003Z,8.35
2023-05-01T03:36:25.413Z,8.37
2023-05-01T03:38:53.436Z,8.19
2023-05-01T03:41:38.628Z,8.20
2023-05-01T03:44:11.707Z,7.93
2023-05-01T03:46:42.418Z,8.24
2023-05-01T03:49:14.591Z,8.00
2023-05-01T03:51:46.875Z,8.19
2023-05-01T03:54:15.158Z,8.23
2023-05-01T03:57:00.850Z,8.18
2023-05-01T03:59:27.802Z,8.20
2023-05-01T04:01:55.027Z,8.19
2023-05-01T04:04:22.528Z,8.21
2023-05-01T04:06:55.981Z,8.23
2023-05-01T04:09:23.010Z,8.19
2023-05-01T04:11:49.952Z,8.27
2023-05-01T04:14:17.035Z,8.31
2023-05-01T04:16:43.956Z,8.29
2023-05-01T04:19:10.906Z,8.34
2023-05-01T04:21:42.084Z,8.31
2023-05-01T04:24:09.493Z,8.32
2023-05-01T04:26:36.809Z,8.31
2023-05-01T04:29:03.930Z,8.23
2023-05-01T04:31:31.167Z,8.15
2023-05-01T04:33:58.854Z,8.13
2023-05-01T04:36:25.734Z,8.04
2023-05-01T04:38:52.896Z,8.10
2023-05-01T04:41:19.790Z,8.08
2023-05-01T04:43:48.172Z,8.13
2023-05-01T04:46:18.354Z,8.13
2023-05-01T04:48:45.281Z,8.22
2023-05-01T04:51:12.220Z,8.34
2023-05-01T04:53:40.222Z,8.43
2023-05-01T04:56:16.838Z,8.41
2023-05-01T04:58:45.439Z,8.47
2023-05-01T05:01:18.310Z,8.45
2023-05-01T05:03:47.974Z,8.42
2023-05-01T05:06:16.920Z,8.50
2023-05-01T05:08:43.935Z,8.50
2023-05-01T05:11:11.698Z,8.56
2023-05-01T05:13:49.230Z,8.55
2023-05-01T05:16:16.438Z,8.56
2023-05-01T05:18:46.250Z,8.65
2023-05-01T05:21:13.230Z,8.68
2023-05-01T05:23:46.694Z,8.77
2023-05-01T05:26:13.721Z,8.85
2023-05-01T05:28:41.373Z,8.93
2023-05-01T05:31:08.595Z,9.02
2023-05-01T05:33:36.454Z,9.16
2023-05-01T05:36:04.062Z,9.27
2023-05-01T05:38:36.422Z,9.34
2023-05-01T05:41:06.247Z,9.53
2023-05-01T05:43:33.486Z,9.63
2023-05-01T05:46:00.959Z,9.69
2023-05-01T05:48:29.388Z,9.80
2023-05-01T05:50:56.895Z,9.91
2023-05-01T05:53:25.886Z,10.12
2023-05-01T05:55:54.246Z,10.20
2023-05-01T05:58:22.869Z,10.37
2023-05-01T06:00:50.701Z,10.51
2023-05-01T06:03:20.063Z,10.62
2023-05-01T06:05:48.122Z,10.69
2023-05-01T06:08:15.552Z,10.77
2023-05-01T06:10:44.020Z,10.84
2023-05-01T06:13:13.505Z,10.94
2023-05-01T06:15:44.118Z,11.02
2023-05-01T06:18:12.311Z,11.09
2023-05-01T06:20:39.492Z,11.14
2023-05-01T06:23:06.638Z,11.16
2023-05-01T06:25:50.712Z,11.23
2023-05-01T06:28:17.630Z,11.32
2023-05-01T06:30:44.569Z,11.34
2023-05-01T06:33:13.000Z,11.44
2023-05-01T06:35:42.765Z,11.54
2023-05-01T06:38:10.311Z,11.64
2023-05-01T06:40:37.666Z,11.82
2023-05-01T06:43:05.209Z,11.88
2023-05-01T06:45:32.396Z,12.00
2023-05-01T06:47:59.431Z,12.15
2023-05-01T06:50:26.612Z,12.26
2023-05-01T06:52:53.572Z,12.36
2023-05-01T06:55:20.804Z,12.45
2023-05-01T06:57:47.647Z,12.53
2023-05-01T07:00:15.285Z,12.59
2023-05-01T07:02:42.515Z,12.69
2023-05-01T07:05:09.763Z,12.71
2023-05-01T07:07:38.810Z,12.84
2023-05-01T07:10:07.875Z,13.01
2023-05-01T07:12:34.708Z,13.14
2023-05-01T07:15:01.835Z,13.32
2023-05-01T07:17:29.809Z,13.41
2023-05-01T07:19:56.970Z,13.45
2023-05-01T07:22:24.184Z,13.51
2023-05-01T07:24:51.194Z,13.61
2023-05-01T07:27:18.346Z,13.61
2023-05-01T07:29:45.287Z,13.79
2023-05-01T07:32:12.336Z,13.91
2023-05-01T07:34:39.415Z,14.04
2023-05-01T07:37:06.879Z,14.17
2023-05-01T07:39:33.803Z,14.25
2023-05-01T07:42:00.814Z,14.41
2023-05-01T07:44:27.804Z,14.60
2023-05-01T07:46:55.010Z,14.74
2023-05-01T07:49:22.157Z,14.79
2023-05-01T07:51:49.940Z,14.79
2023-05-01T07:54:17.346Z,14.78
2023-05-01T07:56:44.625Z,14.88
2023-05-01T07:59:12.050Z,14.98
2023-05-01T08:01:38.905Z,15.02
2023-05-01T08:04:05.984Z,15.05
2023-05-01T08:06:35.643Z,15.19
2023-05-01T08:09:02.649Z,15.38
2023-05-01T08:11:30.159Z,15.53
2023-05-01T08:13:57.035Z,15.57
2023-05-01T08:16:24.142Z,15.61
2023-05-01T08:18:51.259Z,15.63
2023-05-01T08:21:18.256Z,15.66
2023-05-01T08:23:45.196Z,15.70
2023-05-01T08:26:12.235Z,15.82
2023-05-01T08:28:39.198Z,15.93
2023-05-01T08:31:06.254Z,16.03
2023-05-01T08:33:33.227Z,16.12
2023-05-01T08:36:00.215Z,16.32
2023-05-01T08:38:27.221Z,16.44
2023-05-01T08:40:54.634Z,16.50
2023-05-01T08:43:21.732Z,16.52
2023-05-01T08:45:49.659Z,16.45
2023-05-01T08:48:18.856Z,16.50
2023-05-01T08:50:47.200Z,16.43
2023-05-01T08:53:17.338Z,16.52
2023-05-01T08:55:48.797Z,16.57
2023-05-01T08:58:18.981Z,16.52
2023-05-01T09:00:47.793Z,16.47
2023-05-01T09:03:16.948Z,16.48
2023-05-01T09:05:44.076Z,16.64
2023-05-01T09:08:11.109Z,16.77
2023-05-01T09:10:45.814Z,16.91
2023-05-01T09:13:12.769Z,16.93
2023-05-01T09:15:39.920Z,16.94
2023-05-01T09:18:09.181Z,17.03
2023-05-01T09:20:37.633Z,17.25
2023-05-01T09:23:05.148Z,17.50
2023-05-01T09:25:32.169Z,17.64
2023-05-01T09:27:59.031Z,17.76
2023-05-01T09:30:32.157Z,17.82
2023-05-01T09:33:26.125Z,17.74
2023-05-01T09:35:55.910Z,17.63
2023-05-01T09:38:27.733Z,17.67
2023-05-01T09:41:03.592Z,17.79
2023-05-01T09:43:31.806Z,17.84
2023-05-01T09:46:13.285Z,17.87
2023-05-01T09:48:40.579Z,17.92
2023-05-01T09:51:25.769Z,18.10
2023-05-01T09:53:56.264Z,18.21
2023-05-01T09:56:24.225Z,18.31
2023-05-01T09:58:52.589Z,18.49
2023-05-01T10:01:37.573Z,18.73
2023-05-01T10:04:04.948Z,18.96
2023-05-01T10:06:32.276Z,19.06
2023-05-01T10:08:59.420Z,19.24
2023-05-01T10:11:27.316Z,19.22
2023-05-01T10:14:10.536Z,19.14
2023-05-01T10:16:38.910Z,18.99
2023-05-01T10:19:06.717Z,18.86
2023-05-01T10:21:34.243Z,18.67
2023-05-01T10:24:06.479Z,18.65
2023-05-01T10:26:37.318Z,18.64
2023-05-01T10:29:04.591Z,18.74
2023-05-01T10:31:33.441Z,18.81
2023-05-01T10:34:06.358Z,18.75
2023-05-01T10:36:46.206Z,18.72
2023-05-01T10:39:32.188Z,18.69
2023-05-01T10:42:14.404Z,18.62
2023-05-01T10:44:42.737Z,18.53
2023-05-01T10:47:24.970Z,18.42
2023-05-01T10:50:16.454Z,18.35
2023-05-01T10:53:18.791Z,18.35
2023-05-01T10:55:49.422Z,18.38
2023-05-01T10:58:39.393Z,18.44
2023-05-01T11:01:30.320Z,18.37
2023-05-01T11:04:01.140Z,18.35
2023-05-01T11:06:29.549Z,18.34
2023-05-01T11:08:57.625Z,18.43
2023-05-01T11:11:27.409Z,18.47
2023-05-01T11:14:11.443Z,18.62
2023-05-01T11:16:47.525Z,18.62
2023-05-01T11:19:29.533Z,18.57
2023-05-01T11:21:57.277Z,18.56
2023-05-01T11:24:33.610Z,18.68
2023-05-01T11:27:02.504Z,18.62
2023-05-01T11:29:33.752Z,18.67
2023-05-01T11:32:04.120Z,18.70
2023-05-01T11:34:42.391Z,18.66
2023-05-01T11:37:10.101Z,18.60
2023-05-01T11:39:37.212Z,18.50
2023-05-01T11:42:09.918Z,18.42
2023-05-01T11:44:37.767Z,18.29
2023-05-01T11:47:07.484Z,18.22
2023-05-01T11:49:34.714Z,18.14
2023-05-01T11:52:01.663Z,18.09
2023-05-01T11:54:28.753Z,18.14
2023-05-01T11:57:01.019Z,18.16
2023-05-01T11:59:28.612Z,18.09
2023-05-01T12:01:55.567Z,17.94
2023-05-01T12:04:31.718Z,17.85
2023-05-01T12:06:59.733Z,17.84
2023-05-01T12:09:27.635Z,17.81
2023-05-01T12:11:54.857Z,17.76
2023-05-01T12:14:22.650Z,17.72
2023-05-01T12:16:49.814Z,17.63
2023-05-01T12:19:17.752Z,17.57
2023-05-01T12:21:44.694Z,17.53
2023-05-01T12:24:15.285Z,17.56
2023-05-01T12:26:43.374Z,17.60
2023-05-01T12:29:10.561Z,17.56
2023-05-01T12:31:47.038Z,17.57
2023-05-01T12:34:14.028Z,17.58
2023-05-01T12:36:41.274Z,17.61
2023-05-01T12:39:12.632Z,17.57
2023-05-01T12:41:39.699Z,17.52
2023-05-01T12:44:26.785Z,17.44
2023-05-01T12:47:03.231Z,17.35
2023-05-01T12:49:31.998Z,17.29
2023-05-01T12:52:02.348Z,17.25
2023-05-01T12:54:34.541Z,17.21
2023-05-01T12:57:09.519Z,17.16
2023-05-01T12:59:42.867Z,17.06
2023-05-01T13:02:16.287Z,17.01
2023-05-01T13:04:43.720Z,17.01
2023-05-01T13:07:19.243Z,17.05
2023-05-01T13:09:58.656Z,17.03
2023-05-01T13:12:27.639Z,16.98
2023-05-01T13:14:56.932Z,17.00
2023-05-01T13:17:26.074Z,17.08
2023-05-01T13:19:57.520Z,17.16
2023-05-01T13:22:38.135Z,17.19
2023-05-01T13:25:15.208Z,17.05
2023-05-01T13:27:47.608Z,16.99
2023-05-01T13:30:14.752Z,16.86
2023-05-01T13:32:42.586Z,16.71
2023-05-01T13:35:09.804Z,16.63
2023-05-01T13:37:36.775Z,16.53
2023-05-01T13:40:03.894Z,16.48
2023-05-01T13:42:31.886Z,16.44
2023-05-01T13:44:59.545Z,16.37
2023-05-01T13:47:27.640Z,16.23
2023-05-01T13:49:55.320Z,16.07
2023-05-01T13:52:22.853Z,15.97
2023-05-01T13:54:56.152Z,15.80
2023-05-01T13:57:23.405Z,15.50
2023-05-01T13:59:50.464Z,15.17
2023-05-01T14:02:25.404Z,14.95
2023-05-01T14:04:52.652Z,14.74
2023-05-01T14:07:21.495Z,14.64
2023-05-01T14:09:56.554Z,14.41
2023-05-01T14:12:33.185Z,14.20
2023-05-01T14:15:02.170Z,14.08
2023-05-01T14:17:32.604Z,13.98
2023-05-01T14:20:00.888Z,13.91
2023-05-01T14:22:43.872Z,13.89
2023-05-01T14:25:30.028Z,13.84
2023-05-01T14:27:58.733Z,13.74
2023-05-01T14:30:34.386Z,13.75
2023-05-01T14:33:04.134Z,13.73
2023-05-01T14:35:31.258Z,13.68
2023-05-01T14:38:15.040Z,13.60
2023-05-01T14:40:42.529Z,13.63
2023-05-01T14:43:17.858Z,13.70
2023-05-01T14:45:46.877Z,13.75
2023-05-01T14:48:23.308Z,13.82
2023-05-01T14:50:51.334Z,13.86
2023-05-01T14:53:18.880Z,13.94
2023-05-01T14:55:46.018Z,13.94
2023-05-01T14:58:13.026Z,13.90
2023-05-01T15:00:39.933Z,13.91
2023-05-01T15:03:08.030Z,13.88
2023-05-01T15:05:36.314Z,13.84
2023-05-01T15:08:04.428Z,13.79
2023-05-01T15:10:32.609Z,13.73
2023-05-01T15:12:59.864Z,13.74
2023-05-01T15:15:27.167Z,13.76
2023-05-01T15:17:54.229Z,13.73
2023-05-01T15:20:21.368Z,13.77
2023-05-01T15:22:48.334Z,13.76
2023-05-01T15:25:16.796Z,13.73
2023-05-01T15:27:45.789Z,13.80
2023-05-01T15:30:14.815Z,13.79
2023-05-01T15:32:42.501Z,13.77
2023-05-01T15:35:09.874Z,13.67
2023-05-01T15:37:40.476Z,13.65
2023-05-01T15:40:08.346Z,13.68
2023-05-01T15:42:35.263Z,13.73
2023-05-01T15:45:03.689Z,13.70
2023-05-01T15:47:31.678Z,13.58
2023-05-01T15:49:58.901Z,13.56
2023-05-01T15:52:27.379Z,13.52
2023-05-01T15:54:55.195Z,13.48
2023-05-01T15:57:22.178Z,13.47
2023-05-01T15:59:54.138Z,13.45
2023-05-01T16:02:21.933Z,13.39
2023-05-01T16:04:49.278Z,13.38
2023-05-01T16:07:16.293Z,13.34
2023-05-01T16:09:43.310Z,13.38
2023-05-01T16:12:10.282Z,13.42
2023-05-01T16:14:41.481Z,13.42
2023-05-01T16:17:08.792Z,13.42
2023-05-01T16:19:37.221Z,13.37
2023-05-01T16:22:06.103Z,13.38
2023-05-01T16:24:34.399Z,13.36
2023-05-01T16:27:01.794Z,13.36
2023-05-01T16:29:29.079Z,13.37
2023-05-01T16:31:56.215Z,13.44
2023-05-01T16:34:27.651Z,13.48
2023-05-01T16:36:56.681Z,13.48
2023-05-01T16:39:24.878Z,13.47
2023-05-01T16:41:54.111Z,13.49
2023-05-01T16:44:22.779Z,13.50
2023-05-01T16:46:54.208Z,13.53
2023-05-01T16:49:22.649Z,13.54
2023-05-01T16:51:49.770Z,13.56
2023-05-01T16:54:18.761Z,13.62
2023-05-01T16:56:45.983Z,13.64
2023-05-01T16:59:12.977Z,13.66
2023-05-01T17:01:39.986Z,13.67
2023-05-01T17:04:07.297Z,13.67
2023-05-01T17:06:34.425Z,13.74
2023-05-01T17:09:01.452Z,13.74
2023-05-01T17:11:30.420Z,13.77
2023-05-01T17:13:58.892Z,13.81
2023-05-01T17:16:26.095Z,13.83
2023-05-01T17:18:53.269Z,13.84
2023-05-01T17:21:25.037Z,13.88
2023-05-01T17:23:52.234Z,13.86
2023-05-01T17:26:19.250Z,13.87
2023-05-01T17:28:47.177Z,13.84
2023-05-01T17:31:15.827Z,13.79
2023-05-01T17:33:46.258Z,13.71
2023-05-01T17:36:13.257Z,13.66
2023-05-01T17:38:40.355Z,13.59
2023-05-01T17:41:07.320Z,13.62
2023-05-01T17:43:34.315Z,13.59
2023-05-01T17:46:02.540Z,13.50
2023-05-01T17:48:29.718Z,13.53
2023-05-01T17:50:58.171Z,13.51
2023-05-01T17:53:26.916Z,13.53
2023-05-01T17:56:00.641Z,13.49
2023-05-01T17:58:28.783Z,13.53
2023-05-01T18:00:58.265Z,13.47
2023-05-01T18:03:26.023Z,13.45
2023-05-01T18:05:53.176Z,13.46
2023-05-01T18:08:20.188Z,13.39
2023-05-01T18:10:47.937Z,13.36
2023-05-01T18:13:15.878Z,13.29
2023-05-01T18:15:43.331Z,13.24
2023-05-01T18:18:10.799Z,13.18
2023-05-01T18:20:37.871Z,13.13
2023-05-01T18:23:05.576Z,13.07
2023-05-01T18:25:33.176Z,12.96
2023-05-01T18:28:00.497Z,12.90
2023-05-01T18:30:28.255Z,12.88
2023-05-01T18:32:55.431Z,12.81
2023-05-01T18:35:22.418Z,12.74
2023-05-01T18:37:51.411Z,12.69
2023-05-01T18:40:19.743Z,12.59
2023-05-01T18:42:47.258Z,12.54
2023-05-01T18:45:15.662Z,12.43
2023-05-01T18:47:42.948Z,12.37
2023-05-01T18:50:10.780Z,12.36
2023-05-01T18:52:37.946Z,12.36
2023-05-01T18:55:06.694Z,12.38
2023-05-01T18:57:33.733Z,12.38
2023-05-01T19:00:01.437Z,12.36
2023-05-01T19:02:28.762Z,12.30
2023-05-01T19:04:57.907Z,12.27
2023-05-01T19:07:26.837Z,12.14
2023-05-01T19:09:54.245Z,12.11
2023-05-01T19:12:22.742Z,11.97
2023-05-01T19:14:49.736Z,11.92
2023-05-01T19:17:16.792Z,11.81
2023-05-01T19:19:44.147Z,11.69
2023-05-01T19:22:11.137Z,11.66
2023-05-01T19:24:38.493Z,11.61
2023-05-01T19:27:05.667Z,11.55
2023-05-01T19:29:32.863Z,11.57
2023-05-01T19:32:02.706Z,11.59
2023-05-01T19:34:29.777Z,11.56
2023-05-01T19:37:02.386Z,11.53
2023-05-01T19:39:32.177Z,11.51
2023-05-01T19:41:59.335Z,11.52
2023-05-01T19:44:26.600Z,11.53
2023-05-01T19:46:53.670Z,11.57
2023-05-01T19:49:21.184Z,11.58
2023-05-01T19:51:48.150Z,11.65
2023-05-01T19:54:15.132Z,11.69
2023-05-01T19:56:42.145Z,11.70
2023-05-01T19:59:09.110Z,11.61
2023-05-01T20:01:39.055Z,11.68
2023-05-01T20:04:06.247Z,11.72
2023-05-01T20:06:33.249Z,11.74
2023-05-01T20:09:00.357Z,11.78
2023-05-01T20:11:27.251Z,11.80
2023-05-01T20:13:54.911Z,11.76
2023-05-01T20:16:22.631Z,11.80
2023-05-01T20:18:49.668Z,11.76
2023-05-01T20:21:16.613Z,11.76
2023-05-01T20:23:43.716Z,11.73
2023-05-01T20:26:12.781Z,11.72
2023-05-01T20:28:39.751Z,11.75
2023-05-01T20:31:07.778Z,11.73
2023-05-01T20:33:34.865Z,11.70
2023-05-01T20:36:06.208Z,11.64
2023-05-01T20:38:39.554Z,11.65
2023-05-01T20:41:06.561Z,11.60
2023-05-01T20:43:33.712Z,11.62
2023-05-01T20:46:00.693Z,11.61
2023-05-01T20:48:27.968Z,11.64
2023-05-01T20:50:55.806Z,11.62
2023-05-01T20:53:22.829Z,11.49
2023-05-01T20:55:52.757Z,11.44
2023-05-01T20:58:19.822Z,11.43
2023-05-01T21:00:48.362Z,11.42
2023-05-01T21:03:17.401Z,11.40
2023-05-01T21:05:44.510Z,11.37
2023-05-01T21:08:11.696Z,11.36
2023-05-01T21:10:40.231Z,11.33
2023-05-01T21:13:07.660Z,11.37
2023-05-01T21:15:36.070Z,11.36
2023-05-01T21:18:03.343Z,11.37
2023-05-01T21:20:36.317Z,11.36
2023-05-01T21:23:03.750Z,11.32
2023-05-01T21:25:32.148Z,11.26
2023-05-01T21:28:03.751Z,11.22
2023-05-01T21:30:33.737Z,11.18
2023-05-01T21:33:14.208Z,11.10
2023-05-01T21:35:43.372Z,11.06
2023-05-01T21:38:10.917Z,11.04
2023-05-01T21:40:42.803Z,10.99
2023-05-01T21:43:10.330Z,10.99
2023-05-01T21:45:42.794Z,10.97
2023-05-01T21:48:10.110Z,10.97
2023-05-01T21:50:38.421Z,10.95
2023-05-01T21:53:08.777Z,10.93
2023-05-01T21:55:36.024Z,10.88
2023-05-01T21:58:03.253Z,10.84
2023-05-01T22:00:30.894Z,10.79
2023-05-01T22:03:03.232Z,10.79
2023-05-01T22:05:32.215Z,10.76
2023-05-01T22:08:00.533Z,10.72
2023-05-01T22:10:27.622Z,10.69
2023-05-01T22:12:54.607Z,10.66
2023-05-01T22:15:21.621Z,10.64
2023-05-01T22:17:48.685Z,10.57
2023-05-01T22:20:15.765Z,10.53
2023-05-01T22:22:43.793Z,10.54
2023-05-01T22:25:12.491Z,10.54
2023-05-01T22:27:39.517Z,10.53
2023-05-01T22:30:07.304Z,10.53
2023-05-01T22:32:34.507Z,10.51
2023-05-01T22:35:02.222Z,10.53
2023-05-01T22:37:29.924Z,10.49
2023-05-01T22:39:57.414Z,10.48
2023-05-01T22:42:25.243Z,10.40
2023-05-01T22:44:52.397Z,10.40
2023-05-01T22:47:19.389Z,10.42
2023-05-01T22:49:46.436Z,10.43
2023-05-01T22:52:13.472Z,10.44
2023-05-01T22:54:40.528Z,10.45
2023-05-01T22:57:08.806Z,10.49
2023-05-01T22:59:35.997Z,10.54
2023-05-01T23:02:05.191Z,10.55
2023-05-01T23:04:32.901Z,10.56
2023-05-01T23:07:00.464Z,10.56
2023-05-01T23:09:30.061Z,10.59
2023-05-01T23:11:56.989Z,10.59
2023-05-01T23:14:25.939Z,10.59
2023-05-01T23:16:52.954Z,10.61
2023-05-01T23:19:24.562Z,10.62
2023-05-01T23:22:04.272Z,10.61
2023-05-01T23:24:49.531Z,10.59
2023-05-01T23:27:18.147Z,10.56
2023-05-01T23:30:05.577Z,10.52
2023-05-01T23:32:34.153Z,10.44
2023-05-01T23:35:20.775Z,10.41
2023-05-01T23:37:48.083Z,10.39
2023-05-01T23:40:15.103Z,10.35
2023-05-01T23:42:42.483Z,10.36
2023-05-01T23:45:09.992Z,10.35
2023-05-01T23:47:39.081Z,10.35
2023-05-01T23:50:06.958Z,10.38
2023-05-01T23:52:34.155Z,10.40
2023-05-01T23:55:01.125Z,10.40
2023-05-01T23:57:28.383Z,10.43
2023-05-01T23:59:55.968Z,10.48
